KROA/ROA METAR and TAF weather

Enter ICAO airport designator
Station Type Date Time Source
KROA METAR 2024/04/17 17:54 UTC NOAA

KROA 171754Z 13009KT 10SM BKN160 24/14 A3000 RMK AO2 SLP149 60000 T02440144 10244 20161 58033


Station Type Date Time Source
KROA Decoded METAR 2024/04/17 17:54 UTC NOAA

ROANOKE REGIONAL AIRPORT, VA, United States (KROA) 37-19N 079-58W 362M
Apr 17, 2024 - 01:54 PM EDT / 2024.04.17 1754 UTC
Wind: from the SE (130 degrees) at 10 MPH (9 KT):0
Visibility: 10 mile(s):0
Sky conditions: mostly cloudy
Temperature: 75.9 F (24.4 C)
Dew Point: 57.9 F (14.4 C)
Relative Humidity: 53%
Pressure (altimeter): 30 in. Hg (1015 hPa)
Pressure tendency: 0.10 inches (3.3 hPa) lower than three hours ago
ob: KROA 171754Z 13009KT 10SM BKN160 24/14 A3000 RMK AO2 SLP149 60000 T02440144 10244 20161 58033
cycle: 18

Station Type Date Time Source
KROA TAF 2024/04/17 18:51 UTC NOAA